createdAt,value
2022-12-31T09:19:17.642Z,100488.97
2022-12-31T09:21:55.834Z,100485.25
2022-12-31T09:24:34.054Z,100478.16
2022-12-31T09:27:27.283Z,100484.94
2022-12-31T09:30:09.637Z,100470.69
2022-12-31T09:33:00.862Z,100466.09
2022-12-31T09:35:52.794Z,100480.09
2022-12-31T09:38:37.175Z,100458.16
2022-12-31T09:41:27.594Z,100439.50
2022-12-31T09:44:52.039Z,100445.38
2022-12-31T09:48:14.707Z,100452.25
2022-12-31T09:51:12.142Z,100434.56
2022-12-31T09:54:08.535Z,100434.56
2022-12-31T09:57:01.141Z,100438.16
2022-12-31T09:59:48.854Z,100433.69
2022-12-31T10:02:58.925Z,100427.31
2022-12-31T10:05:56.579Z,100415.50
2022-12-31T10:08:57.088Z,100415.25
2022-12-31T10:11:50.996Z,100401.28
2022-12-31T10:14:49.012Z,100407.31
2022-12-31T10:17:52.324Z,100394.53
2022-12-31T10:20:50.399Z,100386.38
2022-12-31T10:23:58.664Z,100389.00
2022-12-31T10:27:05.349Z,100397.69
2022-12-31T10:29:56.318Z,100406.38
2022-12-31T10:32:46.345Z,100414.31
2022-12-31T10:35:44.531Z,100410.00
2022-12-31T10:38:35.595Z,100406.38
2022-12-31T10:42:12.059Z,100410.44
2022-12-31T10:45:19.667Z,100393.94
2022-12-31T10:48:47.379Z,100378.63
2022-12-31T10:51:57.009Z,100369.19
2022-12-31T10:55:10.740Z,100367.53
2022-12-31T10:58:44.253Z,100354.66
2022-12-31T11:01:29.354Z,100343.41
2022-12-31T11:04:42.545Z,100348.97
2022-12-31T11:07:55.276Z,100339.34
2022-12-31T11:11:07.426Z,100344.63
2022-12-31T11:14:31.920Z,100345.59
2022-12-31T11:17:33.268Z,100344.88
2022-12-31T11:20:39.545Z,100334.97
2022-12-31T11:23:35.387Z,100329.91
2022-12-31T11:26:23.706Z,100321.97
2022-12-31T11:29:32.842Z,100314.84
2022-12-31T11:32:34.326Z,100313.41
2022-12-31T11:35:30.568Z,100309.69
2022-12-31T11:38:24.763Z,100322.94
2022-12-31T11:41:11.320Z,100311.25
2022-12-31T11:44:00.160Z,100299.56
2022-12-31T11:47:01.973Z,100297.16
2022-12-31T11:49:57.734Z,100281.00
2022-12-31T11:52:54.361Z,100276.19
2022-12-31T11:56:02.262Z,100264.59
2022-12-31T11:58:39.285Z,100274.72
2022-12-31T12:01:22.547Z,100272.81
2022-12-31T12:04:02.324Z,100272.31
2022-12-31T12:06:39.644Z,100260.84
2022-12-31T12:09:34.209Z,100256.16
2022-12-31T12:12:11.787Z,100247.22
2022-12-31T12:14:52.775Z,100264.59
2022-12-31T12:17:35.861Z,100268.19
2022-12-31T12:20:22.563Z,100257.09
2022-12-31T12:23:02.564Z,100241.66
2022-12-31T12:25:44.472Z,100240.69
2022-12-31T12:28:28.242Z,100242.38
2022-12-31T12:31:08.565Z,100244.53
2022-12-31T12:33:48.563Z,100234.66
2022-12-31T12:36:28.183Z,100230.34
2022-12-31T12:39:07.132Z,100221.28
2022-12-31T12:41:43.966Z,100232.47
2022-12-31T12:44:21.561Z,100242.59
2022-12-31T12:46:59.669Z,100234.72
2022-12-31T12:49:43.463Z,100234.94
2022-12-31T12:52:53.769Z,100240.88
2022-12-31T12:55:45.851Z,100244.94
2022-12-31T12:58:42.016Z,100243.00
2022-12-31T13:01:35.220Z,100242.75
2022-12-31T13:04:49.693Z,100254.78
2022-12-31T13:07:50.393Z,100243.38
2022-12-31T13:10:54.613Z,100246.50
2022-12-31T13:13:44.645Z,100246.25
2022-12-31T13:16:29.802Z,100247.69
2022-12-31T13:19:15.138Z,100247.19
2022-12-31T13:22:00.142Z,100250.16
2022-12-31T13:24:53.889Z,100246.38
2022-12-31T13:27:37.361Z,100261.47
2022-12-31T13:30:31.477Z,100239.34
2022-12-31T13:33:17.784Z,100229.16
2022-12-31T13:36:00.013Z,100237.97
2022-12-31T13:38:42.071Z,100240.94
2022-12-31T13:41:28.303Z,100239.00
2022-12-31T13:44:18.080Z,100248.13
2022-12-31T13:47:04.818Z,100241.84
2022-12-31T13:49:47.050Z,100253.88
2022-12-31T13:52:37.776Z,100249.97
2022-12-31T13:55:21.693Z,100265.16
2022-12-31T13:58:13.229Z,100259.69
2022-12-31T14:00:56.715Z,100259.28
2022-12-31T14:03:45.677Z,100264.34
2022-12-31T14:06:32.338Z,100242.25
2022-12-31T14:09:14.869Z,100245.63
2022-12-31T14:12:21.406Z,100262.44
2022-12-31T14:15:14.099Z,100251.88
2022-12-31T14:18:00.212Z,100250.91
2022-12-31T14:20:49.189Z,100259.56
2022-12-31T14:23:44.320Z,100257.34
2022-12-31T14:26:29.448Z,100263.13
2022-12-31T14:29:19.452Z,100262.81
2022-12-31T14:32:23.035Z,100270.97
2022-12-31T14:35:16.417Z,100268.31
2022-12-31T14:37:59.134Z,100247.91
2022-12-31T14:40:55.129Z,100271.69
2022-12-31T14:43:48.974Z,100253.94
2022-12-31T14:46:36.148Z,100240.22
2022-12-31T14:49:43.166Z,100234.06
2022-12-31T14:52:30.380Z,100242.59
2022-12-31T14:55:30.507Z,100228.72
2022-12-31T14:58:28.202Z,100225.69
2022-12-31T15:01:10.596Z,100205.19
2022-12-31T15:03:49.301Z,100219.50
2022-12-31T15:07:00.713Z,100216.41
2022-12-31T15:10:06.689Z,100219.63
2022-12-31T15:13:01.935Z,100209.41
2022-12-31T15:16:00.190Z,100222.72
2022-12-31T15:18:55.570Z,100222.59
2022-12-31T15:22:11.545Z,100204.50
2022-12-31T15:24:51.495Z,100232.66
2022-12-31T15:27:42.949Z,100220.63
2022-12-31T15:30:43.431Z,100232.66
2022-12-31T15:33:30.407Z,100229.88
2022-12-31T15:36:24.482Z,100232.94
2022-12-31T15:39:29.811Z,100222.00
2022-12-31T15:45:14.712Z,100230.69
2022-12-31T15:48:00.623Z,100224.25
2022-12-31T15:50:42.341Z,100231.81
2022-12-31T15:53:32.045Z,100226.19
2022-12-31T15:56:22.065Z,100225.94
2022-12-31T15:59:05.905Z,100234.88
2022-12-31T16:01:44.896Z,100231.78
2022-12-31T16:04:26.323Z,100223.41
2022-12-31T16:07:09.681Z,100212.44
2022-12-31T16:09:56.908Z,100207.50
2022-12-31T16:12:44.842Z,100235.69
2022-12-31T16:15:28.996Z,100217.47
2022-12-31T16:18:09.439Z,100189.00
2022-12-31T16:20:52.194Z,100216.34
2022-12-31T16:23:31.069Z,100222.78
2022-12-31T16:26:08.824Z,100219.16
2022-12-31T16:28:52.316Z,100224.50
2022-12-31T16:31:32.845Z,100229.22
2022-12-31T16:34:16.799Z,100243.97
2022-12-31T16:37:04.563Z,100267.97
2022-12-31T16:40:04.699Z,100251.38
2022-12-31T16:42:44.708Z,100239.84
2022-12-31T16:45:37.438Z,100250.09
2022-12-31T16:48:21.516Z,100247.13
2022-12-31T16:51:00.184Z,100260.88
2022-12-31T16:53:45.480Z,100250.78
2022-12-31T16:56:33.445Z,100248.34
2022-12-31T16:59:23.359Z,100242.00
2022-12-31T17:02:07.216Z,100260.56
2022-12-31T17:04:55.370Z,100266.13
2022-12-31T17:07:46.759Z,100259.81
2022-12-31T17:10:27.736Z,100265.84
2022-12-31T17:13:29.664Z,100261.88
2022-12-31T17:16:13.153Z,100259.34
2022-12-31T17:18:54.491Z,100246.84
2022-12-31T17:21:33.960Z,100243.31
2022-12-31T17:24:17.322Z,100259.06
2022-12-31T17:26:56.972Z,100249.06
2022-12-31T17:29:35.240Z,100253.72
2022-12-31T17:32:33.797Z,100257.31
2022-12-31T17:35:33.114Z,100253.09
2022-12-31T17:38:35.917Z,100259.56
2022-12-31T17:41:29.675Z,100274.75
2022-12-31T17:44:08.714Z,100273.59
2022-12-31T17:46:46.857Z,100267.69
2022-12-31T17:49:35.174Z,100268.81
2022-12-31T17:52:19.631Z,100273.56
2022-12-31T17:54:56.977Z,100284.56
2022-12-31T17:57:34.417Z,100294.91
2022-12-31T18:00:22.425Z,100276.63
2022-12-31T18:03:00.669Z,100289.97
2022-12-31T18:05:38.954Z,100257.34
2022-12-31T18:08:18.277Z,100273.78
2022-12-31T18:10:57.725Z,100270.47
2022-12-31T18:13:35.338Z,100266.44
2022-12-31T18:16:13.919Z,100273.59
2022-12-31T18:18:53.967Z,100279.03
2022-12-31T18:21:36.543Z,100276.50
2022-12-31T18:24:25.848Z,100272.00
2022-12-31T18:27:04.577Z,100245.03
2022-12-31T18:29:42.028Z,100247.13
2022-12-31T18:32:26.621Z,100262.69
2022-12-31T18:35:03.673Z,100283.94
2022-12-31T18:37:41.349Z,100287.88
2022-12-31T18:40:21.100Z,100295.34
2022-12-31T18:43:04.737Z,100307.16
2022-12-31T18:45:42.248Z,100306.88
2022-12-31T18:48:20.348Z,100306.19
2022-12-31T18:50:57.307Z,100307.84
2022-12-31T18:53:34.519Z,100317.84
2022-12-31T18:56:18.867Z,100316.16
2022-12-31T18:58:56.140Z,100334.16
2022-12-31T19:01:35.882Z,100334.56
2022-12-31T19:04:26.544Z,100337.50
2022-12-31T19:07:04.208Z,100337.50
2022-12-31T19:09:46.430Z,100341.47
2022-12-31T19:12:27.425Z,100328.13
2022-12-31T19:15:05.202Z,100342.31
2022-12-31T19:17:42.014Z,100328.81
2022-12-31T19:20:20.646Z,100339.22
2022-12-31T19:22:59.232Z,100348.91
2022-12-31T19:25:39.297Z,100316.16
2022-12-31T19:28:23.909Z,100316.16
2022-12-31T19:31:03.493Z,100309.44
2022-12-31T19:33:41.287Z,100306.94
2022-12-31T19:36:22.384Z,100311.44
2022-12-31T19:39:00.482Z,100301.28
2022-12-31T19:41:39.168Z,100300.47
2022-12-31T19:44:23.583Z,100310.19
2022-12-31T19:47:01.649Z,100311.19
2022-12-31T19:49:39.545Z,100312.72
2022-12-31T19:52:17.711Z,100315.69
2022-12-31T19:54:54.783Z,100329.72
2022-12-31T19:57:33.019Z,100334.66
2022-12-31T20:00:17.394Z,100330.00
2022-12-31T20:02:55.543Z,100345.72
2022-12-31T20:05:34.151Z,100343.34
2022-12-31T20:08:13.222Z,100331.41
2022-12-31T20:10:51.364Z,100339.16
2022-12-31T20:13:30.232Z,100339.31
2022-12-31T20:16:12.173Z,100314.16
2022-12-31T20:18:51.938Z,100329.47
2022-12-31T20:21:32.981Z,100338.75
2022-12-31T20:24:12.411Z,100325.56
2022-12-31T20:26:49.615Z,100315.03
2022-12-31T20:29:27.869Z,100336.22
2022-12-31T20:32:08.656Z,100327.81
2022-12-31T20:34:47.711Z,100315.78
2022-12-31T20:37:25.217Z,100333.34
2022-12-31T20:40:03.160Z,100320.69
2022-12-31T20:42:41.105Z,100315.94
2022-12-31T20:45:18.941Z,100317.91
2022-12-31T20:47:59.407Z,100325.78
2022-12-31T20:50:37.613Z,100333.50
2022-12-31T20:53:15.180Z,100343.34
2022-12-31T20:55:53.933Z,100359.78
2022-12-31T20:58:34.317Z,100366.38
2022-12-31T21:01:15.140Z,100378.75
2022-12-31T21:04:05.947Z,100381.44
2022-12-31T21:06:46.072Z,100369.50
2022-12-31T21:09:23.974Z,100362.75
2022-12-31T21:12:15.655Z,100356.28
2022-12-31T21:14:55.101Z,100341.09
2022-12-31T21:17:33.087Z,100333.41
2022-12-31T21:20:15.320Z,100333.09
2022-12-31T21:22:54.347Z,100334.09
2022-12-31T21:25:32.461Z,100331.56
2022-12-31T21:28:11.708Z,100342.22
2022-12-31T21:30:49.330Z,100363.03
2022-12-31T21:33:26.598Z,100381.53
2022-12-31T21:36:06.326Z,100380.69
2022-12-31T21:38:43.664Z,100383.69
2022-12-31T21:41:34.055Z,100384.09
2022-12-31T21:44:13.102Z,100372.31
2022-12-31T21:47:25.085Z,100352.66
2022-12-31T21:49:51.853Z,100349.28
2022-12-31T21:52:34.611Z,100350.97
2022-12-31T21:55:27.694Z,100350.97
2022-12-31T22:01:16.027Z,100327.94
2022-12-31T22:03:53.828Z,100337.78
2022-12-31T22:06:33.852Z,100333.28
2022-12-31T22:09:13.598Z,100338.91
2022-12-31T22:11:50.967Z,100327.53
